createdAt,value
2019-03-29T00:00:04.102Z,72.70
2019-03-29T00:02:36.861Z,72.60
2019-03-29T00:05:06.416Z,72.00
2019-03-29T00:10:06.337Z,72.60
2019-03-29T00:12:35.614Z,73.90
2019-03-29T00:15:04.880Z,73.70
2019-03-29T00:17:34.207Z,73.80
2019-03-29T00:20:06.168Z,73.70
2019-03-29T00:22:34.667Z,72.70
2019-03-29T00:25:03.910Z,71.90
2019-03-29T00:27:33.234Z,70.60
2019-03-29T00:32:31.917Z,71.50
2019-03-29T00:35:01.251Z,73.60
2019-03-29T00:37:30.910Z,74.20
2019-03-29T00:40:00.357Z,74.00
2019-03-29T00:42:29.745Z,72.80
2019-03-29T00:44:59.556Z,73.50
2019-03-29T00:47:29.375Z,74.70
2019-03-29T00:49:59.265Z,75.30
2019-03-29T00:54:57.344Z,75.90
2019-03-29T00:57:26.673Z,77.30
2019-03-29T00:59:55.936Z,77.60
2019-03-29T01:02:25.180Z,78.10
2019-03-29T01:04:54.999Z,77.50
2019-03-29T01:07:24.392Z,77.80
2019-03-29T01:09:53.576Z,78.80
2019-03-29T01:12:22.770Z,84.20
2019-03-29T01:17:20.561Z,77.60
2019-03-29T01:19:49.780Z,78.40
2019-03-29T01:22:18.987Z,79.90
2019-03-29T01:24:48.185Z,80.40
2019-03-29T01:27:17.445Z,79.70
2019-03-29T01:29:46.762Z,79.50
2019-03-29T01:32:16.289Z,79.60
2019-03-29T01:34:45.529Z,79.00
2019-03-29T01:39:43.300Z,78.00
2019-03-29T01:42:12.528Z,78.50
2019-03-29T01:44:41.853Z,78.70
2019-03-29T01:47:11.110Z,78.40
2019-03-29T01:49:40.324Z,78.10
2019-03-29T01:52:09.612Z,78.00
2019-03-29T01:54:38.909Z,77.00
2019-03-29T01:59:36.664Z,77.80
2019-03-29T02:02:05.877Z,79.60
2019-03-29T02:04:35.331Z,80.10
2019-03-29T02:07:04.565Z,76.50
2019-03-29T02:09:33.794Z,75.90
2019-03-29T02:12:03.265Z,76.80
2019-03-29T02:14:32.481Z,77.50
2019-03-29T02:17:01.801Z,78.00
2019-03-29T02:22:01.510Z,78.80
2019-03-29T02:24:31.145Z,79.70
2019-03-29T02:27:00.961Z,79.20
2019-03-29T02:29:30.489Z,78.10
2019-03-29T02:31:59.733Z,78.50
2019-03-29T02:34:28.944Z,79.10
2019-03-29T02:36:58.237Z,79.60
2019-03-29T02:39:27.547Z,78.60
2019-03-29T02:44:25.474Z,79.10
2019-03-29T02:46:54.752Z,80.60
2019-03-29T02:49:24.085Z,79.70
2019-03-29T02:51:53.285Z,80.50
2019-03-29T02:54:22.530Z,80.90
2019-03-29T02:56:52.176Z,81.20
2019-03-29T02:59:21.474Z,81.90
2019-03-29T03:01:50.694Z,85.50
2019-03-29T03:06:48.558Z,80.80
2019-03-29T03:09:17.748Z,82.30
2019-03-29T03:11:47.035Z,82.50
2019-03-29T03:14:16.266Z,81.30
2019-03-29T03:16:45.460Z,80.60
2019-03-29T03:19:14.673Z,80.10
2019-03-29T03:21:43.862Z,78.50
2019-03-29T03:26:41.637Z,79.00
2019-03-29T03:29:10.891Z,79.90
2019-03-29T03:31:40.082Z,80.90
2019-03-29T03:34:09.581Z,81.80
2019-03-29T03:36:38.959Z,81.80
2019-03-29T03:39:08.667Z,82.10
2019-03-29T03:41:37.960Z,83.30
2019-03-29T03:44:07.194Z,81.50
2019-03-29T03:49:05.135Z,81.50
2019-03-29T03:51:34.501Z,81.70
2019-03-29T03:54:03.797Z,81.10
2019-03-29T03:56:33.124Z,80.70
2019-03-29T03:59:02.390Z,80.70
2019-03-29T04:01:31.669Z,81.00
2019-03-29T04:04:00.889Z,80.50
2019-03-29T04:11:27.713Z,80.40
2019-03-29T04:13:56.995Z,81.30
2019-03-29T04:16:26.234Z,81.20
2019-03-29T04:18:55.473Z,81.60
2019-03-29T04:21:24.777Z,82.70
2019-03-29T04:23:54.046Z,84.40
2019-03-29T04:26:23.286Z,81.30
2019-03-29T04:31:22.895Z,81.50
2019-03-29T04:33:52.224Z,82.20
2019-03-29T04:36:21.487Z,80.90
2019-03-29T04:38:50.802Z,80.50
2019-03-29T04:41:20.132Z,80.60
2019-03-29T04:43:49.394Z,80.80
2019-03-29T04:46:18.661Z,80.40
2019-03-29T04:48:48.088Z,80.00
2019-03-29T04:53:46.234Z,80.20
2019-03-29T04:56:15.500Z,81.10
2019-03-29T04:58:44.779Z,81.40
2019-03-29T05:01:17.242Z,82.50
2019-03-29T05:03:45.000Z,83.40
2019-03-29T05:06:14.193Z,83.60
2019-03-29T05:08:43.385Z,84.00
2019-03-29T05:11:12.585Z,87.90
2019-03-29T05:16:10.421Z,81.70
2019-03-29T05:18:39.757Z,82.70
2019-03-29T05:21:09.141Z,82.50
2019-03-29T05:23:38.881Z,82.20
2019-03-29T05:26:08.191Z,82.30
2019-03-29T05:28:37.508Z,83.00
2019-03-29T05:31:07.066Z,83.30
2019-03-29T05:33:36.357Z,82.70
2019-03-29T05:38:34.218Z,81.80
2019-03-29T05:41:03.520Z,83.10
2019-03-29T05:43:32.847Z,83.40
2019-03-29T05:46:02.061Z,84.10
2019-03-29T05:48:31.272Z,82.80
2019-03-29T05:51:00.566Z,83.10
2019-03-29T05:53:29.823Z,83.90
2019-03-29T05:58:27.664Z,84.00
2019-03-29T06:00:56.872Z,84.80
2019-03-29T06:03:26.082Z,84.50
2019-03-29T06:05:55.352Z,83.70
2019-03-29T06:08:24.666Z,84.20
2019-03-29T06:10:53.879Z,84.60
2019-03-29T06:13:23.110Z,84.90
2019-03-29T06:15:52.679Z,84.00
2019-03-29T06:20:50.539Z,86.60
2019-03-29T06:23:19.782Z,87.80
2019-03-29T06:25:49.068Z,86.90
2019-03-29T06:28:18.316Z,84.70
2019-03-29T06:30:47.530Z,82.90
2019-03-29T06:33:16.861Z,80.70
2019-03-29T06:35:46.064Z,78.90
2019-03-29T06:38:15.377Z,74.30
2019-03-29T06:43:13.265Z,71.40
2019-03-29T06:45:48.145Z,72.40
2019-03-29T06:48:13.530Z,69.80
2019-03-29T06:50:43.077Z,69.60
2019-03-29T06:53:12.682Z,68.60
2019-03-29T06:55:42.176Z,66.30
2019-03-29T06:58:11.785Z,64.70
2019-03-29T07:00:41.092Z,61.80
2019-03-29T07:05:38.868Z,61.30
2019-03-29T07:08:08.165Z,61.40
2019-03-29T07:10:38.381Z,59.40
2019-03-29T07:13:07.568Z,59.70
2019-03-29T07:15:36.763Z,57.90
2019-03-29T07:18:06.144Z,57.20
2019-03-29T07:20:35.393Z,55.80
2019-03-29T07:23:04.719Z,53.80
2019-03-29T07:28:03.021Z,53.20
2019-03-29T07:30:32.277Z,52.10
2019-03-29T07:33:01.586Z,51.80
2019-03-29T07:35:30.777Z,51.30
2019-03-29T07:37:59.981Z,50.80
2019-03-29T07:40:29.307Z,49.00
2019-03-29T07:42:58.595Z,47.50
2019-03-29T07:47:56.403Z,46.70
2019-03-29T07:50:25.612Z,47.10
2019-03-29T07:52:54.859Z,47.30
2019-03-29T07:55:24.180Z,46.20
2019-03-29T07:57:54.096Z,45.50
2019-03-29T08:00:23.364Z,45.30
2019-03-29T08:02:52.671Z,44.20
2019-03-29T08:05:21.905Z,42.60
2019-03-29T08:10:27.518Z,41.50
2019-03-29T08:12:50.707Z,41.10
2019-03-29T08:15:20.167Z,40.50
2019-03-29T08:17:49.358Z,40.40
2019-03-29T08:20:39.204Z,40.20
2019-03-29T08:22:49.536Z,40.30
2019-03-29T08:25:18.841Z,40.20
2019-03-29T08:27:48.110Z,39.40
2019-03-29T08:32:45.880Z,39.70
2019-03-29T08:35:15.067Z,39.70
2019-03-29T08:37:44.293Z,38.30
2019-03-29T08:40:13.505Z,38.10
2019-03-29T08:42:42.859Z,39.60
2019-03-29T08:45:12.040Z,39.50
2019-03-29T08:47:41.430Z,38.00
2019-03-29T08:50:10.637Z,37.50
2019-03-29T08:55:08.347Z,36.70
2019-03-29T08:57:37.572Z,37.40
2019-03-29T09:00:07.817Z,37.40
2019-03-29T09:02:37.096Z,37.80
2019-03-29T09:05:06.451Z,38.80
2019-03-29T09:07:44.621Z,39.40
2019-03-29T09:10:12.941Z,38.80
2019-03-29T09:12:42.429Z,38.00
2019-03-29T09:17:40.639Z,38.60
2019-03-29T09:20:10.754Z,39.70
2019-03-29T09:22:40.108Z,38.00
2019-03-29T09:25:09.336Z,38.40
2019-03-29T09:27:38.809Z,38.00
2019-03-29T09:30:08.125Z,37.60
2019-03-29T09:32:37.350Z,37.40
2019-03-29T09:35:06.646Z,36.40
2019-03-29T09:40:05.162Z,35.20
2019-03-29T09:42:34.418Z,35.90
2019-03-29T09:45:03.809Z,35.70
2019-03-29T09:47:38.577Z,35.30
2019-03-29T09:50:04.496Z,35.10
2019-03-29T09:52:33.771Z,34.60
2019-03-29T09:55:03.075Z,33.70
2019-03-29T09:57:37.111Z,33.90
2019-03-29T10:02:33.743Z,33.30
2019-03-29T10:05:03.070Z,35.00
2019-03-29T10:07:32.269Z,34.70
2019-03-29T10:10:01.593Z,34.40
2019-03-29T10:12:42.791Z,34.30
2019-03-29T10:15:02.352Z,35.30
2019-03-29T10:17:31.637Z,34.70
2019-03-29T10:20:00.944Z,33.90
2019-03-29T10:22:30.264Z,43.40
2019-03-29T10:25:02.070Z,35.20
2019-03-29T10:27:30.406Z,35.30
2019-03-29T10:29:59.730Z,36.30
2019-03-29T10:32:29.041Z,36.30
2019-03-29T10:34:58.250Z,36.40
2019-03-29T10:37:27.446Z,36.10
2019-03-29T10:39:56.761Z,35.80
2019-03-29T10:42:26.026Z,36.00
2019-03-29T10:44:55.434Z,58.20
2019-03-29T10:47:42.059Z,37.90
2019-03-29T10:49:55.834Z,38.30
2019-03-29T10:52:25.065Z,38.60
2019-03-29T10:54:54.378Z,37.20
2019-03-29T10:57:23.721Z,35.90
2019-03-29T10:59:52.881Z,35.80
2019-03-29T11:02:22.189Z,36.30
2019-03-29T11:04:51.436Z,36.00
2019-03-29T11:09:49.645Z,35.60
2019-03-29T11:12:18.857Z,36.30
2019-03-29T11:14:48.041Z,37.70
2019-03-29T11:17:17.327Z,37.60
2019-03-29T11:19:46.670Z,36.60
2019-03-29T11:22:15.931Z,35.80
2019-03-29T11:24:45.229Z,35.20
2019-03-29T11:29:43.030Z,35.40
2019-03-29T11:32:12.523Z,35.20
2019-03-29T11:34:41.833Z,34.20
2019-03-29T11:37:11.570Z,34.50
2019-03-29T11:39:40.809Z,35.70
2019-03-29T11:42:10.021Z,35.70
2019-03-29T11:44:39.221Z,36.50
2019-03-29T11:47:08.536Z,35.60
2019-03-29T11:52:06.353Z,36.60
2019-03-29T11:54:35.545Z,37.40
2019-03-29T11:57:05.149Z,36.80
2019-03-29T11:59:34.344Z,36.30
2019-03-29T12:02:03.525Z,34.90
2019-03-29T12:04:32.727Z,35.40
2019-03-29T12:07:03.573Z,34.60
2019-03-29T12:09:33.052Z,35.70
2019-03-29T12:14:31.077Z,35.80
2019-03-29T12:17:00.274Z,36.00
2019-03-29T12:19:29.470Z,36.50
2019-03-29T12:21:59.018Z,34.60
2019-03-29T12:24:28.215Z,34.90
2019-03-29T12:26:57.425Z,35.50
2019-03-29T12:29:26.759Z,34.00
2019-03-29T12:34:24.636Z,33.90
2019-03-29T12:36:53.865Z,33.70
2019-03-29T12:39:23.134Z,35.70
2019-03-29T12:41:52.346Z,35.80
2019-03-29T12:44:21.614Z,36.30
2019-03-29T12:46:50.913Z,36.30
2019-03-29T12:49:20.108Z,36.30
2019-03-29T12:51:49.290Z,35.60
2019-03-29T12:56:47.175Z,34.70
2019-03-29T12:59:16.661Z,35.80
2019-03-29T13:01:45.858Z,36.60
2019-03-29T13:04:15.136Z,36.10
2019-03-29T13:06:44.316Z,35.80
2019-03-29T13:09:13.509Z,35.90
2019-03-29T13:11:43.220Z,36.40
2019-03-29T13:14:12.411Z,35.40
2019-03-29T13:16:41.666Z,70.30
2019-03-29T13:19:10.871Z,36.90
2019-03-29T13:21:40.386Z,37.00
2019-03-29T13:24:10.056Z,36.90
2019-03-29T13:26:40.409Z,36.60
2019-03-29T13:29:09.648Z,36.30
2019-03-29T13:31:38.843Z,36.80
2019-03-29T13:34:08.423Z,36.20
2019-03-29T13:36:37.613Z,36.70
2019-03-29T13:41:35.401Z,36.10
2019-03-29T13:44:04.695Z,36.70
2019-03-29T13:46:33.942Z,37.40
2019-03-29T13:49:03.213Z,37.50
2019-03-29T13:51:33.647Z,36.40
2019-03-29T13:54:02.929Z,37.00
2019-03-29T13:56:32.301Z,36.00
2019-03-29T14:01:31.646Z,35.90
2019-03-29T14:04:00.977Z,36.40
2019-03-29T14:06:30.246Z,36.90
2019-03-29T14:08:59.437Z,36.70
2019-03-29T14:11:28.982Z,36.60
2019-03-29T14:13:58.193Z,35.80
2019-03-29T14:16:27.374Z,36.00
2019-03-29T14:18:56.573Z,35.40
2019-03-29T14:23:54.524Z,33.80
2019-03-29T14:26:23.737Z,35.40
2019-03-29T14:28:53.041Z,35.70
2019-03-29T14:31:22.248Z,35.60
2019-03-29T14:33:51.525Z,36.30
2019-03-29T14:36:21.259Z,36.00
2019-03-29T14:38:50.560Z,35.50
2019-03-29T14:41:19.905Z,35.30
2019-03-29T14:46:17.822Z,35.00
2019-03-29T14:48:47.150Z,34.90
2019-03-29T14:51:16.450Z,35.80
2019-03-29T14:53:45.718Z,36.10
2019-03-29T14:56:14.961Z,36.30
2019-03-29T14:58:44.201Z,36.60
2019-03-29T15:01:14.256Z,36.30
2019-03-29T15:03:43.543Z,35.90
2019-03-29T15:08:41.265Z,35.60
2019-03-29T15:11:21.714Z,36.60
2019-03-29T15:13:41.469Z,36.30
2019-03-29T15:16:10.667Z,36.40
2019-03-29T15:18:39.889Z,36.50
2019-03-29T15:21:10.522Z,36.10
2019-03-29T15:23:39.975Z,35.30
2019-03-29T15:26:09.158Z,35.20
2019-03-29T15:31:06.994Z,36.20
2019-03-29T15:33:36.254Z,36.90
2019-03-29T15:36:05.455Z,37.10
2019-03-29T15:38:34.681Z,37.50
2019-03-29T15:41:03.944Z,37.20
2019-03-29T15:43:33.268Z,37.10
2019-03-29T15:46:02.645Z,36.10
2019-03-29T15:48:31.953Z,39.00
2019-03-29T15:53:30.909Z,36.40
2019-03-29T15:56:00.121Z,37.50
2019-03-29T15:58:29.380Z,37.90
2019-03-29T16:00:58.561Z,37.70
2019-03-29T16:03:27.855Z,37.60
2019-03-29T16:05:57.497Z,37.70
2019-03-29T16:08:26.777Z,38.60
2019-03-29T16:15:53.395Z,39.10
2019-03-29T16:18:22.596Z,39.40
2019-03-29T16:20:51.780Z,39.70
2019-03-29T16:23:21.081Z,40.10
2019-03-29T16:25:50.316Z,40.50
2019-03-29T16:28:19.560Z,40.80
2019-03-29T16:30:48.890Z,40.70
2019-03-29T16:35:46.814Z,40.90
2019-03-29T16:38:16.170Z,41.10
2019-03-29T16:40:45.437Z,41.30
2019-03-29T16:43:20.665Z,41.60
2019-03-29T16:45:49.992Z,41.90
2019-03-29T16:48:19.297Z,42.40
2019-03-29T16:50:48.842Z,42.40
2019-03-29T16:53:18.318Z,42.30
2019-03-29T16:55:47.562Z,42.70
2019-03-29T16:58:16.811Z,43.10
2019-03-29T17:00:46.050Z,42.70
2019-03-29T17:03:15.465Z,43.30
2019-03-29T17:05:44.792Z,43.40
2019-03-29T17:08:14.084Z,43.50
2019-03-29T17:10:43.364Z,43.00
2019-03-29T17:13:12.757Z,43.20
2019-03-29T17:18:10.842Z,43.40
2019-03-29T17:20:40.029Z,43.90
2019-03-29T17:23:09.722Z,44.40
2019-03-29T17:25:38.959Z,44.50
2019-03-29T17:28:08.436Z,44.60
2019-03-29T17:30:48.681Z,44.60
2019-03-29T17:33:17.895Z,44.40
2019-03-29T17:35:47.128Z,45.00
2019-03-29T17:38:16.354Z,45.00
2019-03-29T17:43:14.184Z,45.10
2019-03-29T17:45:43.414Z,45.20
2019-03-29T17:48:12.717Z,45.80
2019-03-29T17:50:41.992Z,45.80
2019-03-29T17:53:11.275Z,46.00
2019-03-29T17:55:40.634Z,46.20
2019-03-29T17:58:09.860Z,46.10
2019-03-29T18:05:36.690Z,46.40
2019-03-29T18:08:05.880Z,47.10
2019-03-29T18:10:35.111Z,47.10
2019-03-29T18:13:04.621Z,47.40
2019-03-29T18:15:33.879Z,47.70
2019-03-29T18:18:03.166Z,48.00
2019-03-29T18:20:32.361Z,47.70
2019-03-29T18:25:30.096Z,48.00
2019-03-29T18:27:59.301Z,48.80
2019-03-29T18:30:46.689Z,49.20
2019-03-29T18:33:16.134Z,49.30
2019-03-29T18:35:45.373Z,49.40
2019-03-29T18:38:14.562Z,49.30
2019-03-29T18:40:46.173Z,49.20
2019-03-29T18:43:15.576Z,49.70
2019-03-29T18:45:44.864Z,49.40
2019-03-29T18:50:42.855Z,49.90
2019-03-29T18:53:12.118Z,50.70
2019-03-29T18:55:41.350Z,50.30
2019-03-29T18:58:10.642Z,50.90
2019-03-29T19:00:39.971Z,51.30
2019-03-29T19:03:11.781Z,51.10
2019-03-29T19:05:40.148Z,51.70
2019-03-29T19:10:37.942Z,51.50
2019-03-29T19:13:07.221Z,52.30
2019-03-29T19:15:36.716Z,52.20
2019-03-29T19:18:05.938Z,53.00
2019-03-29T19:20:35.238Z,53.10
2019-03-29T19:23:04.536Z,53.40
2019-03-29T19:25:33.847Z,53.40
2019-03-29T19:28:03.159Z,52.80
2019-03-29T19:33:01.026Z,53.10
2019-03-29T19:35:30.342Z,54.30
2019-03-29T19:37:59.951Z,54.40
2019-03-29T19:40:29.173Z,54.70
2019-03-29T19:42:58.449Z,54.90
2019-03-29T19:45:27.728Z,55.00
2019-03-29T19:47:57.083Z,55.00
2019-03-29T19:50:26.386Z,55.10
2019-03-29T19:55:24.625Z,55.10
2019-03-29T19:57:53.976Z,55.60
2019-03-29T20:00:36.207Z,56.20
2019-03-29T20:03:05.840Z,56.60
2019-03-29T20:05:35.287Z,57.00
2019-03-29T20:08:04.520Z,56.80
2019-03-29T20:10:34.184Z,56.80
2019-03-29T20:13:03.555Z,57.20
2019-03-29T20:18:01.445Z,57.90
2019-03-29T20:20:31.126Z,59.30
2019-03-29T20:23:00.316Z,59.70
2019-03-29T20:25:29.526Z,59.60
2019-03-29T20:27:58.930Z,59.70
2019-03-29T20:30:28.195Z,60.20
2019-03-29T20:32:57.476Z,61.40
2019-03-29T20:35:26.755Z,63.60
2019-03-29T20:40:24.748Z,62.60
2019-03-29T20:42:54.357Z,63.00
2019-03-29T20:45:23.608Z,63.80
2019-03-29T20:47:52.815Z,65.20
2019-03-29T20:50:22.081Z,66.20
2019-03-29T20:52:51.318Z,67.50
2019-03-29T20:55:20.614Z,66.90
2019-03-29T20:57:49.816Z,67.60
2019-03-29T21:02:47.625Z,68.30
2019-03-29T21:05:16.901Z,69.00
2019-03-29T21:07:46.189Z,69.10
2019-03-29T21:10:15.644Z,69.00
2019-03-29T21:12:45.206Z,68.90
2019-03-29T21:15:14.737Z,70.50
2019-03-29T21:17:55.854Z,69.80
2019-03-29T21:20:15.638Z,70.70
2019-03-29T21:25:13.728Z,71.90
2019-03-29T21:27:42.942Z,73.90
2019-03-29T21:30:12.167Z,74.10
2019-03-29T21:32:41.381Z,73.40
2019-03-29T21:35:10.672Z,74.10
2019-03-29T21:37:39.870Z,74.10
2019-03-29T21:40:09.227Z,73.80
2019-03-29T21:42:38.541Z,72.40
2019-03-29T21:47:36.587Z,72.60
2019-03-29T21:50:06.670Z,73.90
2019-03-29T21:52:36.053Z,74.10
2019-03-29T21:55:05.692Z,73.20
2019-03-29T21:57:34.984Z,73.40
2019-03-29T22:00:05.490Z,74.40
2019-03-29T22:02:34.805Z,73.80
2019-03-29T22:07:32.681Z,73.60
2019-03-29T22:10:01.881Z,74.90
2019-03-29T22:12:31.180Z,75.90
2019-03-29T22:15:00.598Z,75.80
2019-03-29T22:17:29.902Z,76.20
2019-03-29T22:19:59.165Z,76.70
2019-03-29T22:22:28.369Z,76.10
2019-03-29T22:24:57.829Z,80.70
2019-03-29T22:29:55.755Z,75.30
2019-03-29T22:32:25.312Z,75.60
2019-03-29T22:34:54.895Z,75.20
2019-03-29T22:37:24.221Z,76.50
2019-03-29T22:39:53.445Z,76.90
2019-03-29T22:42:22.681Z,77.60
2019-03-29T22:44:52.013Z,76.80
2019-03-29T22:47:21.713Z,77.00
2019-03-29T22:52:19.663Z,77.60
2019-03-29T22:54:48.964Z,79.70
2019-03-29T22:57:18.210Z,78.80
2019-03-29T23:02:16.908Z,77.70
2019-03-29T23:04:46.105Z,77.70
2019-03-29T23:07:15.348Z,77.70
2019-03-29T23:12:13.568Z,78.10
2019-03-29T23:14:42.832Z,77.60
2019-03-29T23:17:12.072Z,77.60
2019-03-29T23:22:10.085Z,76.00
2019-03-29T23:24:39.296Z,76.60
2019-03-29T23:27:08.500Z,76.30
2019-03-29T23:29:37.739Z,76.20
2019-03-29T23:34:35.548Z,76.00
2019-03-29T23:37:04.825Z,77.80
2019-03-29T23:39:34.123Z,78.40
2019-03-29T23:42:03.450Z,78.40
2019-03-29T23:44:32.752Z,78.30
2019-03-29T23:47:02.057Z,78.60
2019-03-29T23:49:31.527Z,78.20
2019-03-29T23:52:01.140Z,78.80
2019-03-29T23:56:59.060Z,78.20
2019-03-29T23:59:28.303Z,79.30
